Time;durP1;ratioP1;P1;durP2;ratioP2;P2;SDS_P1;SDS_P2;PMS_P1;PMS_P2;Temp;Humidity;BMP_temperature;BMP_pressure;BME280_temperature;BME280_humidity;BME280_pressure;Samples;Min_cycle;Max_cycle;Signal;HPM_P1;HPM_P2
2022/07/12 00:01:45;;;;;;;0.20;0.20;;;;;;;;;;5051801;28;20072;-69
2022/07/12 00:04:10;;;;;;;0.20;0.20;;;;;;;;;;5057593;28;20041;-70
2022/07/12 00:06:36;;;;;;;0.20;0.20;;;;;;;;;;5040839;28;20503;-71
2022/07/12 00:09:01;;;;;;;0.20;0.20;;;;;;;;;;5055699;28;20476;-69
2022/07/12 00:11:27;;;;;;;0.20;0.20;;;;;;;;;;5049327;28;20480;-70
2022/07/12 00:13:52;;;;;;;0.20;0.20;;;;;;;;;;5058632;28;20037;-70
2022/07/12 00:16:18;;;;;;;0.20;0.20;;;;;;;;;;5058838;28;20029;-69
2022/07/12 00:18:43;;;;;;;0.20;0.20;;;;;;;;;;5058746;28;20557;-68
2022/07/12 00:21:09;;;;;;;0.20;0.20;;;;;;;;;;5024160;28;20048;-68
2022/07/12 00:23:35;;;;;;;0.20;0.20;;;;;;;;;;5040918;28;20110;-69
2022/07/12 00:26:04;;;;;;;0.20;0.20;;;;;;;;;;5058709;28;20033;-70
2022/07/12 00:28:30;;;;;;;0.20;0.20;;;;;;;;;;5058486;28;20036;-70
2022/07/12 00:30:56;;;;;;;0.20;0.20;;;;;;;;;;5058382;28;20485;-69
2022/07/12 00:33:21;;;;;;;0.20;0.20;;;;;;;;;;5058413;28;20127;-69
2022/07/12 00:35:47;;;;;;;0.20;0.20;;;;;;;;;;5046537;28;20047;-70
2022/07/12 00:38:13;;;;;;;0.20;0.20;;;;;;;;;;5058596;28;20064;-68
2022/07/12 00:40:38;;;;;;;0.30;0.30;;;;;;;;;;5058852;28;20514;-69
2022/07/12 00:43:04;;;;;;;0.20;0.20;;;;;;;;;;5040643;28;20424;-69
2022/07/12 00:45:29;;;;;;;0.20;0.20;;;;;;;;;;5040601;28;20033;-69
2022/07/12 00:47:55;;;;;;;0.20;0.20;;;;;;;;;;5056215;28;20380;-68
2022/07/12 00:50:21;;;;;;;0.20;0.20;;;;;;;;;;5040119;28;20037;-70
2022/07/12 00:52:48;;;;;;;0.20;0.20;;;;;;;;;;5058006;28;20420;-70
2022/07/12 00:55:14;;;;;;;0.13;0.13;;;;;;;;;;5058072;28;20136;-70
2022/07/12 00:57:42;;;;;;;0.20;0.20;;;;;;;;;;5057861;28;20455;-70
2022/07/12 01:00:09;;;;;;;0.20;0.20;;;;;;;;;;5023805;28;20040;-70
2022/07/12 01:02:35;;;;;;;0.20;0.20;;;;;;;;;;5057750;28;20095;-70
2022/07/12 01:05:02;;;;;;;0.20;0.20;;;;;;;;;;5058250;28;20404;-70
2022/07/12 01:07:28;;;;;;;0.20;0.20;;;;;;;;;;5056827;28;20057;-70
2022/07/12 01:09:54;;;;;;;0.20;0.20;;;;;;;;;;5057989;28;20562;-69
2022/07/12 01:12:23;;;;;;;0.20;0.20;;;;;;;;;;5057826;28;20041;-70
2022/07/12 01:14:49;;;;;;;0.20;0.20;;;;;;;;;;5054566;28;20060;-70
2022/07/12 01:17:16;;;;;;;0.20;0.20;;;;;;;;;;5054643;28;20119;-70
2022/07/12 01:19:42;;;;;;;0.20;0.20;;;;;;;;;;5054756;28;20504;-70
2022/07/12 01:22:09;;;;;;;0.20;0.20;;;;;;;;;;5054401;28;20431;-70
2022/07/12 01:24:35;;;;;;;0.20;0.20;;;;;;;;;;5038102;28;20052;-70
2022/07/12 01:27:02;;;;;;;0.20;0.20;;;;;;;;;;5054432;28;20041;-71
2022/07/12 01:29:28;;;;;;;0.20;0.20;;;;;;;;;;5035502;28;20033;-71
2022/07/12 01:31:54;;;;;;;0.20;0.20;;;;;;;;;;5053867;28;20078;-70
2022/07/12 01:34:20;;;;;;;0.30;0.30;;;;;;;;;;5036609;28;20041;-71
2022/07/12 01:36:46;;;;;;;0.22;0.22;;;;;;;;;;5053622;28;20048;-70
2022/07/12 01:39:12;;;;;;;0.20;0.20;;;;;;;;;;5054066;28;20041;-70
2022/07/12 01:41:37;;;;;;;0.20;0.20;;;;;;;;;;5054423;28;20036;-70
2022/07/12 01:44:03;;;;;;;0.20;0.20;;;;;;;;;;5054093;28;20492;-71
2022/07/12 01:46:28;;;;;;;0.20;0.20;;;;;;;;;;5054426;28;20064;-70
2022/07/12 01:48:54;;;;;;;0.20;0.20;;;;;;;;;;5054193;28;20028;-71
2022/07/12 01:51:19;;;;;;;0.20;0.20;;;;;;;;;;5054269;28;20039;-69
2022/07/12 01:53:45;;;;;;;0.20;0.20;;;;;;;;;;5053816;28;20480;-70
2022/07/12 01:56:10;;;;;;;0.20;0.20;;;;;;;;;;5054075;28;20033;-70
2022/07/12 01:58:37;;;;;;;0.20;0.20;;;;;;;;;;5053833;28;20032;-70
2022/07/12 02:01:02;;;;;;;0.20;0.20;;;;;;;;;;5053978;28;20033;-69
2022/07/12 02:03:28;;;;;;;0.20;0.20;;;;;;;;;;5054097;28;20541;-70
2022/07/12 02:05:53;;;;;;;0.50;0.50;;;;;;;;;;5054072;28;20035;-69
2022/07/12 02:08:19;;;;;;;0.20;0.20;;;;;;;;;;5053879;28;20033;-71
2022/07/12 02:10:44;;;;;;;0.20;0.20;;;;;;;;;;5053781;28;20037;-70
2022/07/12 02:13:10;;;;;;;0.20;0.20;;;;;;;;;;5052995;28;20504;-70
2022/07/12 02:15:35;;;;;;;0.20;0.20;;;;;;;;;;5053248;28;20116;-70
2022/07/12 02:18:01;;;;;;;0.20;0.20;;;;;;;;;;5035608;28;20480;-70
2022/07/12 02:20:27;;;;;;;0.20;0.20;;;;;;;;;;5053509;28;20044;-71
2022/07/12 02:22:52;;;;;;;0.20;0.20;;;;;;;;;;5053638;28;20060;-71
2022/07/12 02:25:18;;;;;;;0.13;0.13;;;;;;;;;;5052855;28;20488;-69
2022/07/12 02:27:43;;;;;;;0.20;0.20;;;;;;;;;;5053576;28;20033;-70
2022/07/12 02:30:10;;;;;;;0.20;0.20;;;;;;;;;;5053333;28;20060;-70
2022/07/12 02:32:36;;;;;;;0.20;0.20;;;;;;;;;;5053377;28;20040;-70
2022/07/12 02:35:02;;;;;;;0.20;0.20;;;;;;;;;;5052348;28;20033;-69
2022/07/12 02:37:27;;;;;;;0.20;0.20;;;;;;;;;;5053407;28;20037;-70
2022/07/12 02:40:52;;;;;;;0.20;0.20;;;;;;;;;;5053256;28;20095;-69
2022/07/12 02:42:39;;;;;;;0.20;0.20;;;;;;;;;;5052939;28;20044;-69
2022/07/12 02:45:05;;;;;;;0.22;0.22;;;;;;;;;;5053098;28;20064;-69
2022/07/12 02:47:30;;;;;;;0.28;0.28;;;;;;;;;;5052853;28;20460;-69
2022/07/12 02:49:55;;;;;;;0.20;0.20;;;;;;;;;;5053089;28;20065;-69
2022/07/12 02:52:21;;;;;;;0.15;0.15;;;;;;;;;;5053178;28;20043;-70
2022/07/12 02:54:46;;;;;;;0.20;0.20;;;;;;;;;;5053040;28;20074;-70
2022/07/12 02:57:12;;;;;;;0.10;0.10;;;;;;;;;;5052803;28;20056;-69
2022/07/12 02:59:37;;;;;;;0.20;0.20;;;;;;;;;;5052732;28;20389;-70
2022/07/12 03:02:03;;;;;;;0.20;0.20;;;;;;;;;;5051121;28;20041;-70
2022/07/12 03:04:28;;;;;;;0.20;0.20;;;;;;;;;;5048045;28;20048;-71
2022/07/12 03:06:54;;;;;;;0.20;0.20;;;;;;;;;;5049843;28;20037;-70
2022/07/12 03:09:19;;;;;;;0.20;0.20;;;;;;;;;;5048827;28;20033;-70
2022/07/12 03:11:46;;;;;;;0.20;0.20;;;;;;;;;;5048558;28;20029;-71
2022/07/12 03:14:11;;;;;;;0.20;0.20;;;;;;;;;;5047694;28;20111;-71
2022/07/12 03:16:37;;;;;;;0.20;0.20;;;;;;;;;;5048436;28;20108;-71
2022/07/12 03:19:02;;;;;;;0.20;0.20;;;;;;;;;;5048701;28;20132;-71
2022/07/12 03:21:28;;;;;;;0.20;0.20;;;;;;;;;;5048228;28;20344;-70
2022/07/12 03:23:54;;;;;;;0.20;0.20;;;;;;;;;;5048364;28;20037;-70
2022/07/12 03:26:20;;;;;;;0.20;0.20;;;;;;;;;;5048096;28;20040;-70
2022/07/12 03:28:45;;;;;;;0.10;0.10;;;;;;;;;;5048649;28;20025;-71
2022/07/12 03:31:11;;;;;;;0.20;0.20;;;;;;;;;;5048546;28;20063;-70
2022/07/12 03:33:36;;;;;;;0.20;0.20;;;;;;;;;;5048367;28;20064;-70
2022/07/12 03:36:02;;;;;;;0.20;0.20;;;;;;;;;;5053510;28;20040;-70
2022/07/12 03:38:28;;;;;;;0.22;0.22;;;;;;;;;;5056741;28;20041;-70
2022/07/12 03:40:53;;;;;;;0.20;0.20;;;;;;;;;;5054366;28;20032;-71
2022/07/12 03:43:18;;;;;;;0.20;0.20;;;;;;;;;;5048204;28;20068;-71
2022/07/12 03:45:45;;;;;;;0.20;0.20;;;;;;;;;;5048001;28;20393;-70
2022/07/12 03:48:10;;;;;;;0.10;0.10;;;;;;;;;;5048727;28;20055;-70
2022/07/12 03:50:37;;;;;;;0.20;0.20;;;;;;;;;;5046742;28;20041;-70
2022/07/12 03:53:02;;;;;;;0.73;0.70;;;;;;;;;;5048028;28;20476;-70
2022/07/12 03:55:27;;;;;;;0.20;0.20;;;;;;;;;;5029517;28;20068;-71
2022/07/12 03:57:53;;;;;;;0.20;0.20;;;;;;;;;;5047732;28;20061;-70
2022/07/12 04:00:19;;;;;;;0.20;0.20;;;;;;;;;;5047353;28;20033;-71
2022/07/12 04:02:45;;;;;;;0.20;0.20;;;;;;;;;;5047866;28;20037;-71
2022/07/12 04:05:11;;;;;;;0.20;0.20;;;;;;;;;;5048346;28;20530;-71
2022/07/12 04:07:37;;;;;;;0.20;0.20;;;;;;;;;;5047676;28;20126;-72
2022/07/12 04:10:04;;;;;;;0.20;0.20;;;;;;;;;;5029785;28;20476;-71
2022/07/12 04:12:29;;;;;;;0.20;0.20;;;;;;;;;;5047921;28;20029;-71
2022/07/12 04:14:55;;;;;;;0.20;0.20;;;;;;;;;;5047879;28;20037;-70
2022/07/12 04:17:20;;;;;;;0.10;0.10;;;;;;;;;;5047839;28;20056;-70
2022/07/12 04:19:46;;;;;;;0.68;0.68;;;;;;;;;;5047893;28;20025;-70
2022/07/12 04:22:11;;;;;;;0.20;0.20;;;;;;;;;;5048060;28;20037;-69
2022/07/12 04:24:37;;;;;;;0.20;0.20;;;;;;;;;;5047956;28;20392;-69
2022/07/12 04:27:02;;;;;;;0.20;0.20;;;;;;;;;;5047343;28;20040;-70
2022/07/12 04:29:28;;;;;;;0.30;0.30;;;;;;;;;;5047848;28;20077;-68
2022/07/12 04:31:53;;;;;;;0.20;0.20;;;;;;;;;;5047641;28;20037;-68
2022/07/12 04:34:19;;;;;;;0.20;0.20;;;;;;;;;;5048195;28;20033;-68
2022/07/12 04:36:45;;;;;;;0.20;0.20;;;;;;;;;;5047716;28;20194;-68
2022/07/12 04:39:10;;;;;;;0.20;0.20;;;;;;;;;;5047988;28;20210;-69
2022/07/12 04:41:36;;;;;;;0.20;0.20;;;;;;;;;;5039874;28;20581;-70
2022/07/12 04:44:05;;;;;;;0.20;0.20;;;;;;;;;;5047858;28;20438;-71
2022/07/12 04:46:31;;;;;;;0.20;0.20;;;;;;;;;;5047096;28;20059;-69
2022/07/12 04:48:56;;;;;;;0.20;0.20;;;;;;;;;;5047806;28;20033;-69
2022/07/12 04:51:22;;;;;;;0.20;0.20;;;;;;;;;;5050033;28;20044;-68
2022/07/12 04:53:48;;;;;;;0.20;0.20;;;;;;;;;;5049725;28;20481;-69
2022/07/12 04:56:14;;;;;;;0.20;0.20;;;;;;;;;;5050664;28;20043;-70
2022/07/12 04:58:39;;;;;;;0.10;0.10;;;;;;;;;;5051023;28;20389;-72
2022/07/12 05:01:04;;;;;;;0.20;0.20;;;;;;;;;;5049313;28;20121;-71
2022/07/12 05:03:30;;;;;;;0.20;0.20;;;;;;;;;;5050566;28;20465;-70
2022/07/12 05:05:55;;;;;;;0.20;0.20;;;;;;;;;;5033258;28;20041;-71
2022/07/12 05:08:21;;;;;;;0.20;0.20;;;;;;;;;;5050943;28;20029;-70
2022/07/12 05:10:47;;;;;;;0.10;0.10;;;;;;;;;;5050998;28;20025;-71
2022/07/12 05:13:12;;;;;;;0.63;0.63;;;;;;;;;;5050591;28;20036;-70
2022/07/12 05:15:38;;;;;;;0.20;0.20;;;;;;;;;;5050984;28;20033;-69
2022/07/12 05:18:04;;;;;;;0.20;0.20;;;;;;;;;;5050970;28;20043;-72
2022/07/12 05:20:30;;;;;;;0.20;0.20;;;;;;;;;;5050538;28;20041;-70
2022/07/12 05:22:55;;;;;;;0.20;0.20;;;;;;;;;;5033113;28;20037;-71
2022/07/12 05:25:21;;;;;;;0.20;0.20;;;;;;;;;;5050176;28;20040;-70
2022/07/12 05:27:46;;;;;;;0.20;0.20;;;;;;;;;;5050738;28;20075;-69
2022/07/12 05:30:12;;;;;;;0.30;0.22;;;;;;;;;;5016042;28;20029;-72
2022/07/12 05:32:37;;;;;;;0.20;0.20;;;;;;;;;;5049553;28;20033;-70
2022/07/12 05:35:03;;;;;;;1.45;1.35;;;;;;;;;;5048373;28;20033;-70
2022/07/12 05:37:30;;;;;;;0.20;0.20;;;;;;;;;;5048699;28;20066;-70
2022/07/12 05:39:55;;;;;;;0.25;0.25;;;;;;;;;;5048950;28;20103;-69
2022/07/12 05:42:21;;;;;;;0.20;0.20;;;;;;;;;;5048740;28;20040;-70
2022/07/12 05:44:46;;;;;;;0.20;0.20;;;;;;;;;;5028923;28;20040;-69
2022/07/12 05:47:12;;;;;;;0.57;0.55;;;;;;;;;;5044113;28;20029;-69
2022/07/12 05:49:38;;;;;;;2.13;1.38;;;;;;;;;;5048783;28;20033;-70
2022/07/12 05:54:48;;;;;;;2.88;1.58;;;;;;;;;;5004475;28;20045;-70
2022/07/12 05:57:14;;;;;;;2.28;1.23;;;;;;;;;;5030600;28;20030;-72
2022/07/12 05:59:40;;;;;;;0.47;0.47;;;;;;;;;;5030032;28;20389;-70
2022/07/12 06:02:06;;;;;;;0.73;0.73;;;;;;;;;;5029875;28;20087;-71
2022/07/12 06:04:32;;;;;;;0.20;0.20;;;;;;;;;;5030413;28;20111;-70
2022/07/12 06:06:58;;;;;;;1.10;0.90;;;;;;;;;;5043372;28;20132;-70
2022/07/12 06:09:23;;;;;;;1.85;1.55;;;;;;;;;;5049565;28;20120;-69
2022/07/12 06:11:49;;;;;;;1.83;0.50;;;;;;;;;;5049926;28;20435;-68
2022/07/12 06:14:17;;;;;;;0.20;0.20;;;;;;;;;;5050262;28;20029;-69
2022/07/12 06:16:43;;;;;;;0.28;0.22;;;;;;;;;;5050089;28;20108;-68
2022/07/12 06:19:10;;;;;;;0.65;0.65;;;;;;;;;;5047890;28;20048;-68
2022/07/12 06:21:35;;;;;;;0.20;0.20;;;;;;;;;;5031639;28;20037;-70
2022/07/12 06:24:01;;;;;;;0.25;0.25;;;;;;;;;;5049350;28;20037;-69
2022/07/12 06:26:27;;;;;;;0.50;0.50;;;;;;;;;;5043464;28;20041;-69
2022/07/12 06:28:53;;;;;;;0.60;0.60;;;;;;;;;;5036148;28;20033;-70
2022/07/12 06:31:19;;;;;;;0.30;0.30;;;;;;;;;;5029528;28;20041;-69
2022/07/12 06:33:45;;;;;;;1.27;0.47;;;;;;;;;;5029610;28;20025;-69
2022/07/12 06:36:12;;;;;;;0.28;0.28;;;;;;;;;;5030053;28;20064;-69
2022/07/12 06:38:37;;;;;;;0.70;0.63;;;;;;;;;;5029622;28;20033;-69
2022/07/12 06:41:03;;;;;;;2.42;1.10;;;;;;;;;;5029731;28;20071;-72
2022/07/12 06:43:28;;;;;;;1.20;0.40;;;;;;;;;;5029497;28;20041;-72
2022/07/12 06:45:54;;;;;;;0.20;0.20;;;;;;;;;;5029151;28;20033;-71
2022/07/12 06:48:20;;;;;;;0.30;0.30;;;;;;;;;;5029379;28;20361;-70
2022/07/12 06:50:46;;;;;;;0.45;0.45;;;;;;;;;;5029803;28;20897;-70
2022/07/12 06:53:12;;;;;;;1.02;0.98;;;;;;;;;;5029116;28;20496;-68
2022/07/12 06:55:38;;;;;;;0.20;0.20;;;;;;;;;;5031021;28;20032;-70
2022/07/12 06:58:04;;;;;;;0.20;0.20;;;;;;;;;;5037677;28;20064;-69
2022/07/12 07:00:30;;;;;;;0.20;0.20;;;;;;;;;;5037373;28;20091;-70
2022/07/12 07:02:56;;;;;;;0.30;0.30;;;;;;;;;;5041156;28;20029;-69
2022/07/12 07:05:23;;;;;;;0.20;0.20;;;;;;;;;;5029410;28;20037;-72
2022/07/12 07:07:48;;;;;;;0.30;0.30;;;;;;;;;;5027760;28;20071;-71
2022/07/12 07:10:14;;;;;;;0.30;0.30;;;;;;;;;;5044042;28;20116;-71
2022/07/12 07:12:40;;;;;;;0.20;0.20;;;;;;;;;;5047006;28;20053;-70
2022/07/12 07:15:06;;;;;;;0.20;0.20;;;;;;;;;;5048152;28;20025;-70
2022/07/12 07:17:31;;;;;;;0.30;0.30;;;;;;;;;;5039249;28;20033;-69
2022/07/12 07:19:57;;;;;;;0.30;0.30;;;;;;;;;;5039913;28;20113;-69
2022/07/12 07:22:22;;;;;;;0.25;0.25;;;;;;;;;;5043082;28;20040;-70
2022/07/12 07:24:48;;;;;;;0.30;0.30;;;;;;;;;;5046531;28;20488;-70
2022/07/12 07:27:13;;;;;;;0.40;0.40;;;;;;;;;;5044697;28;20037;-70
2022/07/12 07:32:23;;;;;;;0.60;0.60;;;;;;;;;;5042447;28;20037;-70
2022/07/12 07:34:48;;;;;;;0.30;0.30;;;;;;;;;;5042098;28;20389;-72
2022/07/12 07:37:14;;;;;;;0.40;0.40;;;;;;;;;;5041483;28;20051;-70
2022/07/12 07:39:40;;;;;;;0.28;0.28;;;;;;;;;;5040398;28;20029;-71
2022/07/12 07:42:05;;;;;;;0.60;0.60;;;;;;;;;;5045552;28;20040;-70
2022/07/12 07:44:31;;;;;;;0.35;0.35;;;;;;;;;;5038919;28;20025;-70
2022/07/12 07:46:56;;;;;;;0.60;0.60;;;;;;;;;;5037948;28;20033;-70
2022/07/12 07:49:22;;;;;;;0.40;0.40;;;;;;;;;;5045294;28;20116;-70
2022/07/12 07:51:47;;;;;;;0.30;0.30;;;;;;;;;;5037967;28;20175;-71
2022/07/12 07:54:13;;;;;;;0.40;0.40;;;;;;;;;;5047841;28;20053;-72
2022/07/12 07:56:39;;;;;;;0.30;0.30;;;;;;;;;;5047326;28;20044;-74
2022/07/12 07:59:07;;;;;;;0.30;0.30;;;;;;;;;;5046718;28;20120;-76
2022/07/12 08:01:42;;;;;;;0.85;0.70;;;;;;;;;;5013055;28;20041;-75
2022/07/12 08:04:11;;;;;;;0.70;0.70;;;;;;;;;;5054474;28;20116;-74
2022/07/12 08:06:37;;;;;;;0.38;0.38;;;;;;;;;;5052957;28;20029;-75
2022/07/12 08:09:03;;;;;;;0.30;0.30;;;;;;;;;;5051788;28;20483;-75
2022/07/12 08:11:29;;;;;;;0.30;0.30;;;;;;;;;;5040853;28;20403;-72
2022/07/12 08:13:54;;;;;;;0.20;0.20;;;;;;;;;;5047392;28;20029;-75
2022/07/12 08:16:20;;;;;;;1.15;1.00;;;;;;;;;;5047589;28;20135;-74
2022/07/12 08:18:46;;;;;;;1.38;0.50;;;;;;;;;;5046385;28;20061;-72
2022/07/12 08:21:11;;;;;;;0.52;0.52;;;;;;;;;;5046455;28;20028;-74
2022/07/12 08:23:37;;;;;;;0.40;0.40;;;;;;;;;;5030585;28;20045;-74
2022/07/12 08:26:02;;;;;;;0.82;0.80;;;;;;;;;;5032967;28;20036;-74
2022/07/12 08:28:28;;;;;;;1.23;0.73;;;;;;;;;;5051283;28;20041;-74
2022/07/12 08:30:54;;;;;;;0.63;0.63;;;;;;;;;;5050738;28;20124;-75
2022/07/12 08:33:19;;;;;;;0.50;0.50;;;;;;;;;;5049572;28;20029;-75
2022/07/12 08:35:45;;;;;;;0.50;0.50;;;;;;;;;;5050876;28;20123;-75
2022/07/12 08:38:10;;;;;;;0.32;0.32;;;;;;;;;;5051220;28;20041;-76
2022/07/12 08:40:36;;;;;;;0.40;0.40;;;;;;;;;;5050412;28;20503;-76
2022/07/12 08:43:02;;;;;;;0.30;0.30;;;;;;;;;;5050892;28;20120;-75
2022/07/12 08:45:28;;;;;;;0.60;0.60;;;;;;;;;;5050610;28;20338;-75
2022/07/12 08:47:53;;;;;;;0.88;0.73;;;;;;;;;;5050929;28;20124;-74
2022/07/12 08:50:20;;;;;;;0.55;0.55;;;;;;;;;;5050616;28;20040;-75
2022/07/12 08:52:49;;;;;;;1.45;0.90;;;;;;;;;;5050562;28;20037;-75
2022/07/12 08:55:17;;;;;;;2.50;0.70;;;;;;;;;;5050758;28;20128;-75
2022/07/12 08:57:43;;;;;;;5.77;0.97;;;;;;;;;;5050699;28;20045;-76
2022/07/12 09:00:09;;;;;;;0.30;0.30;;;;;;;;;;5043878;28;20102;-74
2022/07/12 09:02:44;;;;;;;1.75;0.52;;;;;;;;;;5048657;28;20503;-75
2022/07/12 09:05:09;;;;;;;0.90;0.77;;;;;;;;;;5047604;28;20167;-74
2022/07/12 09:07:36;;;;;;;0.40;0.40;;;;;;;;;;5050187;28;20438;-75
2022/07/12 09:10:08;;;;;;;0.50;0.50;;;;;;;;;;5034098;28;20036;-75
2022/07/12 09:12:37;;;;;;;2.30;1.48;;;;;;;;;;5029390;28;20103;-76
2022/07/12 09:15:17;;;;;;;1.33;0.68;;;;;;;;;;5050008;28;20111;-73
2022/07/12 09:18:02;;;;;;;1.58;0.80;;;;;;;;;;5050231;28;20059;-75
2022/07/12 09:20:28;;;;;;;0.85;0.80;;;;;;;;;;5041281;28;20037;-75
2022/07/12 09:22:58;;;;;;;1.10;0.80;;;;;;;;;;5050954;28;20025;-75
2022/07/12 09:25:24;;;;;;;1.10;0.75;;;;;;;;;;5050181;28;20041;-74
2022/07/12 09:27:56;;;;;;;1.13;0.80;;;;;;;;;;5050018;28;20037;-73
2022/07/12 09:30:23;;;;;;;0.75;0.75;;;;;;;;;;5050005;28;20184;-75
2022/07/12 09:38:28;;;;;;;2.30;1.02;;;;;;;;;;5028285;28;20038;-74
2022/07/12 09:40:55;;;;;;;4.35;0.85;;;;;;;;;;5030217;28;20037;-75
2022/07/12 09:43:22;;;;;;;0.50;0.50;;;;;;;;;;5030154;28;20081;-74
2022/07/12 09:45:48;;;;;;;1.23;0.68;;;;;;;;;;5028570;28;20834;-75
2022/07/12 09:48:13;;;;;;;0.40;0.40;;;;;;;;;;5028958;28;20037;-74
2022/07/12 09:50:39;;;;;;;0.80;0.52;;;;;;;;;;5028469;28;20057;-75
2022/07/12 09:53:05;;;;;;;1.05;0.60;;;;;;;;;;5029645;28;20033;-74
2022/07/12 09:55:32;;;;;;;0.47;0.47;;;;;;;;;;5036119;28;20028;-76
2022/07/12 09:58:00;;;;;;;2.20;1.25;;;;;;;;;;5046881;28;20550;-74
2022/07/12 10:00:26;;;;;;;0.38;0.38;;;;;;;;;;5029180;28;20037;-74
2022/07/12 10:02:53;;;;;;;4.18;1.65;;;;;;;;;;5048486;28;20056;-73
2022/07/12 10:05:19;;;;;;;0.85;0.47;;;;;;;;;;5031251;28;20021;-75
2022/07/12 10:07:45;;;;;;;0.30;0.30;;;;;;;;;;5042034;28;20116;-73
2022/07/12 10:10:11;;;;;;;0.85;0.60;;;;;;;;;;5047066;28;20120;-74
2022/07/12 10:12:36;;;;;;;2.20;0.80;;;;;;;;;;5037782;28;20064;-74
2022/07/12 10:15:03;;;;;;;0.35;0.35;;;;;;;;;;5026030;28;20544;-74
2022/07/12 10:17:29;;;;;;;1.20;0.70;;;;;;;;;;5041672;28;20499;-74
2022/07/12 10:20:16;;;;;;;16.17;1.42;;;;;;;;;;5047276;28;20048;-74
2022/07/12 10:22:42;;;;;;;2.78;0.93;;;;;;;;;;5032558;28;20033;-74
2022/07/12 10:25:26;;;;;;;0.28;0.28;;;;;;;;;;5047984;28;20063;-74
2022/07/12 10:27:52;;;;;;;0.57;0.47;;;;;;;;;;5047344;28;20087;-75
2022/07/12 10:30:19;;;;;;;0.30;0.30;;;;;;;;;;5048480;28;20025;-74
2022/07/12 10:32:45;;;;;;;0.30;0.30;;;;;;;;;;5047759;28;20029;-74
2022/07/12 10:35:15;;;;;;;12.95;0.90;;;;;;;;;;5042789;28;20070;-73
2022/07/12 10:37:41;;;;;;;0.80;0.80;;;;;;;;;;5042282;28;20485;-73
2022/07/12 10:40:13;;;;;;;0.82;0.60;;;;;;;;;;5045374;28;20071;-73
2022/07/12 10:42:38;;;;;;;0.40;0.40;;;;;;;;;;5046619;28;20508;-75
2022/07/12 10:45:14;;;;;;;0.52;0.45;;;;;;;;;;5046626;28;20028;-75
2022/07/12 10:47:55;;;;;;;0.40;0.40;;;;;;;;;;5047630;28;20077;-72
2022/07/12 10:50:39;;;;;;;0.50;0.50;;;;;;;;;;5044612;28;20064;-74
2022/07/12 10:53:25;;;;;;;0.60;0.57;;;;;;;;;;5035774;28;20036;-72
2022/07/12 10:56:09;;;;;;;1.60;0.85;;;;;;;;;;5026231;28;20029;-72
2022/07/12 10:58:36;;;;;;;0.98;0.90;;;;;;;;;;5040442;28;20033;-72
2022/07/12 11:01:06;;;;;;;0.65;0.55;;;;;;;;;;5035515;28;20047;-72
2022/07/12 11:03:36;;;;;;;0.85;0.60;;;;;;;;;;5047427;28;20087;-73
2022/07/12 11:06:03;;;;;;;1.50;0.60;;;;;;;;;;5048785;28;20024;-72
2022/07/12 11:08:29;;;;;;;0.45;0.45;;;;;;;;;;5048173;28;20040;-73
2022/07/12 11:10:58;;;;;;;1.55;0.65;;;;;;;;;;5048605;28;20119;-73
2022/07/12 11:13:24;;;;;;;0.95;0.65;;;;;;;;;;5048303;28;20039;-72
2022/07/12 11:15:59;;;;;;;1.23;0.80;;;;;;;;;;5046801;28;20025;-72
2022/07/12 11:18:31;;;;;;;3.05;0.90;;;;;;;;;;5039107;28;20033;-73
2022/07/12 11:20:57;;;;;;;0.57;0.57;;;;;;;;;;5041181;28;20087;-74
2022/07/12 11:23:24;;;;;;;0.40;0.40;;;;;;;;;;5043022;28;20071;-74
2022/07/12 11:25:50;;;;;;;4.30;0.90;;;;;;;;;;5048247;28;20021;-75
2022/07/12 11:28:17;;;;;;;1.02;0.80;;;;;;;;;;5048131;28;20811;-71
2022/07/12 11:30:47;;;;;;;1.83;0.68;;;;;;;;;;5046836;28;20059;-71
2022/07/12 11:33:13;;;;;;;0.52;0.40;;;;;;;;;;5048177;28;20036;-76
2022/07/12 11:35:38;;;;;;;0.65;0.63;;;;;;;;;;5046815;28;20503;-83
2022/07/12 11:38:04;;;;;;;3.10;0.90;;;;;;;;;;5043146;28;20061;-77
2022/07/12 11:40:30;;;;;;;0.40;0.40;;;;;;;;;;5048644;28;20044;-74
2022/07/12 11:43:04;;;;;;;0.50;0.50;;;;;;;;;;5048338;28;20572;-75
2022/07/12 11:45:30;;;;;;;3.67;1.08;;;;;;;;;;5044955;28;20048;-76
2022/07/12 11:47:57;;;;;;;0.50;0.50;;;;;;;;;;5048501;28;20032;-77
2022/07/12 11:50:23;;;;;;;0.47;0.47;;;;;;;;;;5047752;28;20029;-74
2022/07/12 11:52:49;;;;;;;1.30;0.73;;;;;;;;;;5047638;28;20079;-82
2022/07/12 11:55:14;;;;;;;0.80;0.60;;;;;;;;;;5048245;28;20032;-78
2022/07/12 11:57:41;;;;;;;0.40;0.40;;;;;;;;;;5046719;28;20086;-76
2022/07/12 12:00:20;;;;;;;0.40;0.40;;;;;;;;;;5046159;28;20451;-77
2022/07/12 12:02:50;;;;;;;0.30;0.30;;;;;;;;;;5046433;28;20029;-76
2022/07/12 12:05:16;;;;;;;1.20;0.90;;;;;;;;;;5048083;28;20076;-75
2022/07/12 12:07:41;;;;;;;1.00;0.90;;;;;;;;;;5047830;28;20057;-76
2022/07/12 12:10:14;;;;;;;0.45;0.45;;;;;;;;;;5030231;28;20041;-76
2022/07/12 12:12:51;;;;;;;0.52;0.52;;;;;;;;;;5046445;28;20170;-75
2022/07/12 12:15:17;;;;;;;0.80;0.65;;;;;;;;;;5045283;28;20041;-87
2022/07/12 12:17:52;;;;;;;0.47;0.40;;;;;;;;;;5027730;28;20040;-76
2022/07/12 12:20:19;;;;;;;0.47;0.47;;;;;;;;;;5027849;28;20079;-74
2022/07/12 12:22:45;;;;;;;0.70;0.70;;;;;;;;;;5046466;28;20029;-77
2022/07/12 12:25:14;;;;;;;0.30;0.30;;;;;;;;;;5043397;28;20114;-75
2022/07/12 12:27:40;;;;;;;1.27;0.93;;;;;;;;;;5047395;28;20037;-78
2022/07/12 12:30:07;;;;;;;0.30;0.30;;;;;;;;;;5047588;28;20021;-76
2022/07/12 12:32:44;;;;;;;1.40;1.08;;;;;;;;;;5029840;28;20086;-76
2022/07/12 12:35:11;;;;;;;1.48;0.82;;;;;;;;;;5047258;28;20476;-77
2022/07/12 12:37:36;;;;;;;0.40;0.40;;;;;;;;;;5029316;28;20036;-75
2022/07/12 12:40:02;;;;;;;0.50;0.50;;;;;;;;;;5047860;28;20434;-76
2022/07/12 12:42:28;;;;;;;0.50;0.50;;;;;;;;;;5047519;28;20045;-76
2022/07/12 12:44:53;;;;;;;0.95;0.50;;;;;;;;;;5047405;28;20500;-82
2022/07/12 12:47:30;;;;;;;2.28;0.70;;;;;;;;;;5047341;28;20033;-75
2022/07/12 12:49:57;;;;;;;0.90;0.70;;;;;;;;;;5047389;28;20090;-74
2022/07/12 12:52:23;;;;;;;1.63;0.90;;;;;;;;;;5047538;28;20033;-77
2022/07/12 12:54:49;;;;;;;12.80;1.08;;;;;;;;;;5045441;28;20037;-75
2022/07/12 12:57:15;;;;;;;1.15;0.68;;;;;;;;;;5046818;28;20160;-76
2022/07/12 12:59:40;;;;;;;1.60;0.80;;;;;;;;;;5047456;28;20497;-75
2022/07/12 13:02:07;;;;;;;0.57;0.50;;;;;;;;;;5029545;28;20100;-75
2022/07/12 13:04:33;;;;;;;2.33;0.73;;;;;;;;;;5027519;28;20037;-87
2022/07/12 13:06:59;;;;;;;0.40;0.40;;;;;;;;;;5047497;28;20033;-74
2022/07/12 13:09:25;;;;;;;1.40;0.88;;;;;;;;;;5047089;28;20397;-76
2022/07/12 13:11:50;;;;;;;0.75;0.60;;;;;;;;;;5031631;28;20035;-75
2022/07/12 13:14:16;;;;;;;1.67;0.90;;;;;;;;;;5025629;28;20560;-76
2022/07/12 13:16:41;;;;;;;0.70;0.70;;;;;;;;;;5050857;28;20033;-77
2022/07/12 13:19:07;;;;;;;0.75;0.57;;;;;;;;;;5032164;28;20112;-77
2022/07/12 13:21:33;;;;;;;0.50;0.50;;;;;;;;;;5032220;28;20033;-76
2022/07/12 13:23:58;;;;;;;1.67;0.80;;;;;;;;;;5049939;28;20033;-75
2022/07/12 13:26:23;;;;;;;1.95;0.65;;;;;;;;;;5048299;28;20061;-75
2022/07/12 13:28:49;;;;;;;0.50;0.50;;;;;;;;;;5048713;28;20037;-76
2022/07/12 13:31:14;;;;;;;0.50;0.50;;;;;;;;;;5016057;28;20476;-75
2022/07/12 13:33:41;;;;;;;1.00;0.90;;;;;;;;;;5050128;28;20044;-76
2022/07/12 13:36:07;;;;;;;1.02;0.60;;;;;;;;;;5049583;28;20067;-74
2022/07/12 13:38:32;;;;;;;0.77;0.60;;;;;;;;;;5050220;28;20037;-76
2022/07/12 13:40:58;;;;;;;3.47;0.60;;;;;;;;;;5032266;28;20538;-78
2022/07/12 13:43:23;;;;;;;1.65;0.80;;;;;;;;;;5050070;28;20025;-74
2022/07/12 13:45:51;;;;;;;0.73;0.73;;;;;;;;;;5050199;28;20381;-75
2022/07/12 13:48:18;;;;;;;2.53;0.98;;;;;;;;;;5032554;28;20393;-76
2022/07/12 13:50:44;;;;;;;2.55;1.10;;;;;;;;;;5031565;28;20125;-77
2022/07/12 13:53:10;;;;;;;0.65;0.60;;;;;;;;;;5048471;28;20120;-77
2022/07/12 13:55:36;;;;;;;0.68;0.65;;;;;;;;;;5031811;28;20044;-76
2022/07/12 13:58:02;;;;;;;1.23;0.85;;;;;;;;;;5049908;28;20384;-76
2022/07/12 14:00:28;;;;;;;0.30;0.30;;;;;;;;;;5049804;28;20072;-77
2022/07/12 14:02:54;;;;;;;0.40;0.40;;;;;;;;;;5050148;28;20049;-75
2022/07/12 14:05:20;;;;;;;0.50;0.50;;;;;;;;;;5032300;28;20561;-75
2022/07/12 14:07:46;;;;;;;0.77;0.50;;;;;;;;;;5049176;28;20053;-76
2022/07/12 14:10:12;;;;;;;0.88;0.57;;;;;;;;;;5047922;28;20048;-74
2022/07/12 14:12:37;;;;;;;0.43;0.43;;;;;;;;;;5039953;28;20029;-76
2022/07/12 14:17:42;;;;;;;0.50;0.50;;;;;;;;;;5046004;28;20048;-76
2022/07/12 14:20:10;;;;;;;1.55;0.80;;;;;;;;;;5048984;28;20029;-75
2022/07/12 14:22:36;;;;;;;0.65;0.65;;;;;;;;;;5048780;28;20086;-73
2022/07/12 14:25:03;;;;;;;2.38;1.13;;;;;;;;;;5047766;28;20033;-75
2022/07/12 14:27:30;;;;;;;1.40;1.30;;;;;;;;;;5047990;28;20033;-74
2022/07/12 14:29:55;;;;;;;2.15;0.95;;;;;;;;;;5049674;28;20029;-83
2022/07/12 14:32:21;;;;;;;1.42;0.90;;;;;;;;;;5048487;28;20098;-75
2022/07/12 14:34:46;;;;;;;2.30;0.80;;;;;;;;;;5049542;28;20035;-75
2022/07/12 14:37:12;;;;;;;0.95;0.75;;;;;;;;;;5047649;28;20037;-75
2022/07/12 14:39:38;;;;;;;2.38;1.05;;;;;;;;;;5046009;28;20045;-75
2022/07/12 14:42:04;;;;;;;0.40;0.40;;;;;;;;;;5036488;28;20037;-77
2022/07/12 14:44:29;;;;;;;4.60;1.15;;;;;;;;;;5047270;28;20036;-76
2022/07/12 14:46:55;;;;;;;0.90;0.70;;;;;;;;;;5046179;28;20389;-76
2022/07/12 14:49:21;;;;;;;0.75;0.47;;;;;;;;;;5036122;28;20488;-76
2022/07/12 14:51:46;;;;;;;0.50;0.50;;;;;;;;;;5048092;28;20469;-72
2022/07/12 14:54:12;;;;;;;1.55;0.77;;;;;;;;;;5047575;28;20043;-69